Spurgeon, North Carolina
Current Conditions -  °F | °C
As of 2:15 PM on Monday 22 Dec 2014 (Local Time) from KUKF Reporting Station
Drizzle Drizzle  
Wind Chill: 36°   Ceiling: 300
Heat Index: 36°   Visibility: 1.2mi
Dew Point: 36°   Wind: 3mph
Humidity: 100%   Direction: 90°E
Pressure: 30.1"   Gusts: NA
Location:  36.1997°N, 81.0764°W
Report Text: KUKF 221915Z AUTO 09003KT 1 1/4SM DZ OVC003 02/02 A3010 RMK AO2
Loading
Personal Weather Stations






























Interactive Weather Map New forecast layout! Learn more

10-Day Weather Forecast

Advertisements
Track Severe Weather on mobile